Airfield :
LOGIN :

Register | Disclaimer

   EN    FR    IT 

 










Legend :    VFR   Marginal VFR   IFR   Intensive IFR   Very Intensive IFR
Visi :
Ceiling :
>= 8 km
>= 3000ft
5 to 8 km
1000 to 3000 ft
1500m to 5 km
500 to 1000 ft
800 to 1500m
200 to 500 ft
< 800m
< 200 ft
Symbols :   Thunderstorms  Fog  Heavy snow  Heavy precipitations  Wind > 20 kt
SIGMETs :     Misc.  Thunderstorms  Icing  Turbulence  Mountain Waves  Volcanic Ashes






- Airport Elevation : 242 ft
- IATA code : DUB


EIDW - Dublin

CURRENT METAR :
  • 261730Z 27014KT 6000 -RADZ SCT005 BKN007 09/09 Q1006 TEMPO 3000

EXPIRED METARs :
  • 261700Z 27015KT 9999 -DZ SCT005 BKN007 09/08 Q1006 TEMPO 3000
  • 261630Z 26010G20KT 230V290 9999 -DZ SCT005 BKN007 09/08 Q1006 TEMPO 3000
  • 261600Z 25011KT 9999 -DZ SCT005 BKN007 09/08 Q1005 TEMPO 3000
  • 261530Z 25010KT 210V280 9999 -DZ FEW005 BKN007 09/08 Q1005 TEMPO BKN006
  • 261500Z 25009KT 200V280 4000 SCT006 BKN008 09/08 Q1005 TEMPO BKN006

TAF COR TAF EIDW
Valid from the 26 at 18:00 until the 27 at 18:00 UTC


261718Z 2618/2718 26014KT 9999 FEW007 BKN010
TEMPO 2618/2706 4000 -RADZ BR BKN007
BECMG 2700/2702 25008KT
PROB30
TEMPO 2703/2706 2000 RA
BECMG 2704/2706 VRB03KT FEW012 BKN020
PROB30
TEMPO 2706/2709 3000 -RADZ BR BKN007
BECMG 2710/2712 BKN010
TEMPO 2712/2718 4000 -RADZ BKN007
BECMG 2714/2716 12005KT



MET'MAP, your aeronautical weather chart ! - Copyright ORBIFLY December 2007 - Disclaimer

ORBIFLY MET'MAP TEAM :

Programming & Development : Alexandra Zaïnal
Concept & original design : Baudouin d'Aumeries
Assistance for programming : Marc-Olivier Méhu
Technical & hardware support : Manuel Goepfert

Contact : metmap@orbifly.com




SOURCES & CREDITS :

   NOAA